ΕΜΥ, Εθνική Μετεωρολογική Υπηρεσία - Δελτία Καιρού, Προγνώσεις

ΑΕΡΟΝΑΥΤΙΛΙΑ

GREEK AIRPORTS CODES

TAF LGSR 152300Z 1600/1624 35025KT 9999 FEW020 BECMG 1610/1612 35012KT=

EUROPEAN AIRPORTS CODES

LFPO 160400Z 28003KT CAVOK 14/12 Q1021 NOSIG=